createdAt,value
2022-09-18T00:00:35.443Z,97391.19
2022-09-18T00:03:37.198Z,97390.44
2022-09-18T00:06:41.248Z,97397.38
2022-09-18T00:09:43.587Z,97393.63
2022-09-18T00:12:44.973Z,97395.78
2022-09-18T00:15:54.448Z,97393.91
2022-09-18T00:18:56.507Z,97400.53
2022-09-18T00:21:57.929Z,97396.50
2022-09-18T00:24:59.324Z,97394.41
2022-09-18T00:28:00.773Z,97397.97
2022-09-18T00:31:26.466Z,97396.25
2022-09-18T00:34:28.077Z,97386.63
2022-09-18T00:37:29.517Z,97381.63
2022-09-18T00:40:31.046Z,97390.44
2022-09-18T00:43:35.269Z,97392.84
2022-09-18T00:46:37.358Z,97401.66
2022-09-18T00:49:50.915Z,97403.09
2022-09-18T00:53:06.055Z,97396.63
2022-09-18T00:56:09.522Z,97405.06
2022-09-18T00:59:13.908Z,97398.44
2022-09-18T01:02:15.481Z,97400.59
2022-09-18T01:05:23.269Z,97404.16
2022-09-18T01:08:44.111Z,97416.00
2022-09-18T01:11:49.427Z,97400.94
2022-09-18T01:15:00.804Z,97410.50
2022-09-18T01:18:28.897Z,97400.78
2022-09-18T01:21:38.291Z,97408.22
2022-09-18T01:24:55.244Z,97418.44
2022-09-18T01:28:15.629Z,97412.47
2022-09-18T01:31:27.783Z,97409.59
2022-09-18T01:34:47.799Z,97408.75
2022-09-18T01:38:03.702Z,97408.09
2022-09-18T01:41:12.610Z,97408.56
2022-09-18T01:44:18.810Z,97405.84
2022-09-18T01:47:24.013Z,97403.44
2022-09-18T01:50:32.556Z,97403.53
2022-09-18T01:53:39.748Z,97400.84
2022-09-18T01:57:07.883Z,97400.34
2022-09-18T02:00:12.338Z,97378.50
2022-09-18T02:03:27.112Z,97393.41
2022-09-18T02:06:41.909Z,97396.22
2022-09-18T02:09:44.419Z,97399.72
2022-09-18T02:12:48.309Z,97392.88
2022-09-18T02:15:51.798Z,97385.72
2022-09-18T02:19:01.124Z,97382.75
2022-09-18T02:22:07.176Z,97373.91
2022-09-18T02:25:11.331Z,97375.13
2022-09-18T02:28:19.094Z,97381.94
2022-09-18T02:31:21.143Z,97379.75
2022-09-18T02:34:22.638Z,97381.47
2022-09-18T02:37:42.858Z,97380.13
2022-09-18T02:41:29.442Z,97374.75
2022-09-18T02:44:39.974Z,97372.38
2022-09-18T02:47:53.599Z,97367.44
2022-09-18T02:51:30.925Z,97375.13
2022-09-18T02:54:37.823Z,97368.44
2022-09-18T02:58:03.081Z,97387.84
2022-09-18T03:01:07.852Z,97366.72
2022-09-18T03:04:13.815Z,97374.41
2022-09-18T03:07:32.761Z,97370.59
2022-09-18T03:10:34.635Z,97383.22
2022-09-18T03:13:36.774Z,97372.78
2022-09-18T03:16:38.646Z,97371.91
2022-09-18T03:19:40.070Z,97368.84
2022-09-18T03:22:42.044Z,97373.69
2022-09-18T03:25:45.330Z,97365.41
2022-09-18T03:28:48.195Z,97359.59
2022-09-18T03:31:49.651Z,97362.84
2022-09-18T03:34:52.525Z,97365.84
2022-09-18T03:37:55.802Z,97362.63
2022-09-18T03:41:00.683Z,97361.91
2022-09-18T03:44:03.209Z,97360.56
2022-09-18T03:47:04.884Z,97362.72
2022-09-18T03:50:06.966Z,97371.78
2022-09-18T03:53:09.747Z,97367.56
2022-09-18T03:56:30.058Z,97369.44
2022-09-18T03:59:50.897Z,97374.41
2022-09-18T04:03:12.385Z,97367.75
2022-09-18T04:06:36.782Z,97374.44
2022-09-18T04:09:56.586Z,97377.22
2022-09-18T04:12:58.003Z,97381.06
2022-09-18T04:16:05.159Z,97381.06
2022-09-18T04:19:06.657Z,97390.31
2022-09-18T04:22:08.176Z,97391.19
2022-09-18T04:25:11.854Z,97387.16
2022-09-18T04:28:14.091Z,97391.84
2022-09-18T04:31:19.099Z,97390.59
2022-09-18T04:34:21.542Z,97390.34
2022-09-18T04:37:22.995Z,97385.53
2022-09-18T04:40:26.976Z,97382.56
2022-09-18T04:43:28.894Z,97386.44
2022-09-18T04:46:30.496Z,97391.50
2022-09-18T04:49:32.058Z,97387.78
2022-09-18T04:52:35.921Z,97389.66
2022-09-18T04:55:39.362Z,97382.38
2022-09-18T04:58:44.222Z,97388.38
2022-09-18T05:01:46.633Z,97388.97
2022-09-18T05:04:49.486Z,97389.28
2022-09-18T05:08:02.501Z,97391.34
2022-09-18T05:11:04.878Z,97386.63
2022-09-18T05:14:09.748Z,97391.34
2022-09-18T05:17:11.570Z,97385.91
2022-09-18T05:20:16.620Z,97398.81
2022-09-18T05:23:18.230Z,97402.75
2022-09-18T05:26:19.667Z,97394.31
2022-09-18T05:29:21.129Z,97401.13
2022-09-18T05:32:24.444Z,97415.03
2022-09-18T05:35:28.385Z,97406.47
2022-09-18T05:38:29.826Z,97410.22
2022-09-18T05:41:31.245Z,97408.91
2022-09-18T05:44:36.627Z,97407.81
2022-09-18T05:48:01.801Z,97406.31
2022-09-18T05:51:05.130Z,97413.66
2022-09-18T05:54:06.678Z,97422.44
2022-09-18T05:57:14.170Z,97422.78
2022-09-18T06:00:15.737Z,97419.28
2022-09-18T06:03:21.415Z,97412.78
2022-09-18T06:06:22.931Z,97416.06
2022-09-18T06:09:24.365Z,97415.19
2022-09-18T06:12:25.779Z,97411.78
2022-09-18T06:15:27.237Z,97402.31
2022-09-18T06:18:28.687Z,97418.03
2022-09-18T06:21:32.472Z,97420.97
2022-09-18T06:24:34.545Z,97432.06
2022-09-18T06:27:41.328Z,97418.28
2022-09-18T06:30:42.884Z,97420.56
2022-09-18T06:33:44.666Z,97420.94
2022-09-18T06:36:47.547Z,97430.28
2022-09-18T06:39:55.678Z,97422.38
2022-09-18T06:43:11.674Z,97423.91
2022-09-18T06:46:48.351Z,97430.41
2022-09-18T06:50:03.918Z,97425.72
2022-09-18T06:53:10.235Z,97427.28
2022-09-18T06:56:16.330Z,97427.75
2022-09-18T06:59:17.926Z,97424.97
2022-09-18T07:02:19.927Z,97431.66
2022-09-18T07:05:31.357Z,97425.53
2022-09-18T07:08:33.082Z,97414.31
2022-09-18T07:11:44.943Z,97418.19
2022-09-18T07:14:46.373Z,97422.41
2022-09-18T07:17:49.338Z,97427.47
2022-09-18T07:20:53.679Z,97414.31
2022-09-18T07:24:06.326Z,97423.97
2022-09-18T07:27:07.739Z,97427.66
2022-09-18T07:30:11.063Z,97421.81
2022-09-18T07:33:12.635Z,97429.19
2022-09-18T07:36:20.944Z,97423.47
2022-09-18T07:39:23.726Z,97427.50
2022-09-18T07:43:05.295Z,97430.56
2022-09-18T07:46:08.122Z,97440.91
2022-09-18T07:49:09.615Z,97438.09
2022-09-18T07:52:11.707Z,97443.88
2022-09-18T07:55:25.381Z,97447.66
2022-09-18T07:58:28.072Z,97444.28
2022-09-18T08:01:40.191Z,97445.25
2022-09-18T08:04:41.721Z,97440.81
2022-09-18T08:07:51.849Z,97438.03
2022-09-18T08:11:08.704Z,97443.69
2022-09-18T08:14:29.225Z,97454.06
2022-09-18T08:17:53.919Z,97443.84
2022-09-18T08:21:12.075Z,97457.16
2022-09-18T08:24:17.922Z,97455.19
2022-09-18T08:27:20.601Z,97459.13
2022-09-18T08:30:22.064Z,97457.94
2022-09-18T08:33:28.587Z,97458.47
2022-09-18T08:36:30.061Z,97468.69
2022-09-18T08:39:48.684Z,97464.25
2022-09-18T08:43:29.807Z,97466.72
2022-09-18T08:46:49.509Z,97462.34
2022-09-18T08:49:57.714Z,97456.41
2022-09-18T08:53:05.673Z,97459.13
2022-09-18T08:56:24.640Z,97465.41
2022-09-18T08:59:54.939Z,97462.41
2022-09-18T09:03:09.234Z,97459.97
2022-09-18T09:06:19.635Z,97466.69
2022-09-18T09:09:33.297Z,97463.56
2022-09-18T09:12:56.433Z,97464.94
2022-09-18T09:16:05.309Z,97469.78
2022-09-18T09:19:28.748Z,97469.91
2022-09-18T09:22:45.867Z,97470.72
2022-09-18T09:25:56.692Z,97471.94
2022-09-18T09:29:34.876Z,97475.84
2022-09-18T09:33:02.749Z,97475.16
2022-09-18T09:36:19.018Z,97475.59
2022-09-18T09:39:32.524Z,97467.34
2022-09-18T09:42:41.868Z,97474.00
2022-09-18T09:45:50.255Z,97469.72
2022-09-18T09:49:01.172Z,97464.56
2022-09-18T09:52:09.413Z,97469.78
2022-09-18T09:55:14.693Z,97452.72
2022-09-18T09:58:27.894Z,97456.38
2022-09-18T10:01:38.149Z,97458.50
2022-09-18T10:04:58.863Z,97463.47
2022-09-18T10:08:32.225Z,97457.44
2022-09-18T10:11:37.649Z,97456.03
2022-09-18T10:14:41.950Z,97448.94
2022-09-18T10:17:45.058Z,97451.59
2022-09-18T10:20:50.235Z,97450.34
2022-09-18T10:24:14.405Z,97449.09
2022-09-18T10:27:17.246Z,97447.53
2022-09-18T10:30:18.788Z,97438.84
2022-09-18T10:33:42.697Z,97441.47
2022-09-18T10:36:50.715Z,97441.44
2022-09-18T10:39:57.384Z,97430.22
2022-09-18T10:43:00.391Z,97432.47
2022-09-18T10:46:03.053Z,97429.53
2022-09-18T10:49:56.825Z,97426.25
2022-09-18T10:53:42.358Z,97414.53
2022-09-18T10:56:50.246Z,97413.50
2022-09-18T10:59:52.650Z,97415.59
2022-09-18T11:02:59.344Z,97411.38
2022-09-18T11:06:10.614Z,97429.69
2022-09-18T11:09:18.372Z,97414.50
2022-09-18T11:12:27.183Z,97417.88
2022-09-18T11:15:31.831Z,97406.47
2022-09-18T11:18:33.433Z,97397.00
2022-09-18T11:21:45.028Z,97390.47
2022-09-18T11:24:47.567Z,97382.88
2022-09-18T11:27:55.738Z,97389.56
2022-09-18T11:31:16.916Z,97388.66
2022-09-18T11:34:38.331Z,97387.34
2022-09-18T11:37:55.641Z,97387.47
2022-09-18T11:41:01.559Z,97370.69
2022-09-18T11:44:21.943Z,97366.97
2022-09-18T11:47:43.111Z,97362.72
2022-09-18T11:50:45.416Z,97353.47
2022-09-18T11:53:55.216Z,97353.34
2022-09-18T11:57:02.201Z,97361.69
2022-09-18T12:00:21.530Z,97351.06
2022-09-18T12:03:34.106Z,97345.66
2022-09-18T12:06:48.172Z,97353.41
2022-09-18T12:09:56.196Z,97357.06
2022-09-18T12:13:32.269Z,97353.81
2022-09-18T12:16:52.307Z,97348.72
2022-09-18T12:20:03.984Z,97346.31
2022-09-18T12:23:12.978Z,97347.47
2022-09-18T12:26:44.415Z,97342.78
2022-09-18T12:30:09.260Z,97336.72
2022-09-18T12:33:34.359Z,97341.38
2022-09-18T12:36:45.556Z,97342.03
2022-09-18T12:39:55.898Z,97336.97
2022-09-18T12:43:12.709Z,97337.72
2022-09-18T12:46:17.106Z,97329.63
2022-09-18T12:49:37.134Z,97321.06
2022-09-18T12:53:00.296Z,97309.84
2022-09-18T12:56:34.198Z,97319.84
2022-09-18T12:59:57.940Z,97319.50
2022-09-18T13:03:26.661Z,97307.44
2022-09-18T13:06:46.893Z,97297.38
2022-09-18T13:10:06.601Z,97307.00
2022-09-18T13:13:42.682Z,97297.59
2022-09-18T13:16:54.692Z,97304.09
2022-09-18T13:20:03.059Z,97295.38
2022-09-18T13:23:06.458Z,97305.56
2022-09-18T13:26:12.937Z,97300.88
2022-09-18T13:29:45.360Z,97308.28
2022-09-18T13:32:46.774Z,97287.34
2022-09-18T13:35:55.688Z,97285.19
2022-09-18T13:39:01.747Z,97284.97
2022-09-18T13:42:03.341Z,97284.69
2022-09-18T13:45:21.287Z,97273.75
2022-09-18T13:48:34.261Z,97279.31
2022-09-18T13:51:37.175Z,97272.75
2022-09-18T13:54:39.438Z,97274.31
2022-09-18T13:57:42.206Z,97272.09
2022-09-18T14:00:43.662Z,97277.19
2022-09-18T14:03:45.054Z,97274.66
2022-09-18T14:06:46.621Z,97269.19
2022-09-18T14:09:55.587Z,97270.31
2022-09-18T14:13:27.063Z,97266.81
2022-09-18T14:16:32.938Z,97265.41
2022-09-18T14:19:36.126Z,97260.22
2022-09-18T14:22:40.247Z,97258.78
2022-09-18T14:25:45.458Z,97261.81
2022-09-18T14:28:48.380Z,97263.31
2022-09-18T14:31:56.656Z,97255.69
2022-09-18T14:35:17.013Z,97273.13
2022-09-18T14:38:26.330Z,97260.56
2022-09-18T14:41:35.233Z,97252.25
2022-09-18T14:44:38.017Z,97260.28
2022-09-18T14:47:41.842Z,97257.75
2022-09-18T14:50:43.243Z,97254.38
2022-09-18T14:53:49.784Z,97248.03
2022-09-18T14:56:53.685Z,97244.13
2022-09-18T14:59:58.388Z,97243.13
2022-09-18T15:03:14.574Z,97236.34
2022-09-18T15:06:21.487Z,97228.53
2022-09-18T15:09:28.530Z,97222.31
2022-09-18T15:12:32.548Z,97225.13
2022-09-18T15:15:39.444Z,97226.13
2022-09-18T15:18:42.454Z,97220.78
2022-09-18T15:21:47.571Z,97217.72
2022-09-18T15:24:49.402Z,97215.47
2022-09-18T15:27:53.694Z,97210.97
2022-09-18T15:30:59.188Z,97214.66
2022-09-18T15:34:14.592Z,97214.09
2022-09-18T15:37:22.381Z,97211.50
2022-09-18T15:40:30.623Z,97213.75
2022-09-18T15:43:33.613Z,97219.50
2022-09-18T15:46:37.066Z,97211.25
2022-09-18T15:49:38.491Z,97219.16
2022-09-18T15:52:47.178Z,97212.81
2022-09-18T15:55:58.778Z,97204.13
2022-09-18T15:59:03.900Z,97204.13
2022-09-18T16:02:21.882Z,97212.22
2022-09-18T16:05:24.478Z,97204.44
2022-09-18T16:08:29.610Z,97204.44
2022-09-18T16:11:38.494Z,97204.47
2022-09-18T16:14:45.641Z,97199.97
2022-09-18T16:17:56.632Z,97201.38
2022-09-18T16:21:08.698Z,97201.38
2022-09-18T16:24:28.264Z,97190.13
2022-09-18T16:27:29.649Z,97184.25
2022-09-18T16:30:31.031Z,97187.94
2022-09-18T16:33:33.853Z,97184.00
2022-09-18T16:36:41.412Z,97186.97
2022-09-18T16:39:42.881Z,97183.44
2022-09-18T16:42:44.644Z,97188.25
2022-09-18T16:45:50.704Z,97180.09
2022-09-18T16:48:54.765Z,97181.78
2022-09-18T16:51:57.573Z,97181.38
2022-09-18T16:54:58.924Z,97167.03
2022-09-18T16:58:01.217Z,97176.47
2022-09-18T17:01:05.086Z,97171.56
2022-09-18T17:04:07.042Z,97174.09
2022-09-18T17:07:08.570Z,97172.00
2022-09-18T17:10:13.340Z,97171.16
2022-09-18T17:13:14.982Z,97165.41
2022-09-18T17:16:35.266Z,97169.91
2022-09-18T17:19:40.864Z,97163.03
2022-09-18T17:22:42.268Z,97160.91
2022-09-18T17:25:44.770Z,97150.13
2022-09-18T17:28:46.211Z,97163.47
2022-09-18T17:31:47.684Z,97155.47
2022-09-18T17:34:49.106Z,97153.38
2022-09-18T17:37:51.617Z,97153.94
2022-09-18T17:40:58.086Z,97146.91
2022-09-18T17:43:59.923Z,97152.13
2022-09-18T17:47:01.495Z,97145.09
2022-09-18T17:50:05.093Z,97146.25
2022-09-18T17:53:06.522Z,97144.53
2022-09-18T17:56:20.011Z,97148.19
2022-09-18T17:59:21.386Z,97147.34
2022-09-18T18:02:22.863Z,97141.03
2022-09-18T18:05:24.355Z,97150.19
2022-09-18T18:08:27.789Z,97138.78
2022-09-18T18:11:29.521Z,97145.69
2022-09-18T18:14:31.590Z,97154.09
2022-09-18T18:17:35.744Z,97159.44
2022-09-18T18:20:37.808Z,97157.63
2022-09-18T18:23:39.209Z,97167.44
2022-09-18T18:26:41.146Z,97170.25
2022-09-18T18:29:42.574Z,97173.78
2022-09-18T18:32:44.173Z,97162.94
2022-09-18T18:35:45.717Z,97168.28
2022-09-18T18:38:49.609Z,97172.78
2022-09-18T18:41:51.130Z,97168.44
2022-09-18T18:44:52.580Z,97163.94
2022-09-18T18:47:55.633Z,97160.59
2022-09-18T18:50:58.062Z,97162.53
2022-09-18T18:54:03.619Z,97169.16
2022-09-18T18:57:05.338Z,97171.94
2022-09-18T19:00:08.213Z,97172.94
2022-09-18T19:03:09.926Z,97164.97
2022-09-18T19:06:11.634Z,97173.66
2022-09-18T19:09:24.658Z,97174.22
2022-09-18T19:12:26.629Z,97180.25
2022-09-18T19:15:28.189Z,97178.00
2022-09-18T19:18:29.723Z,97175.59
2022-09-18T19:21:31.171Z,97170.16
2022-09-18T19:24:32.702Z,97166.06
2022-09-18T19:27:34.600Z,97171.25
2022-09-18T19:30:39.099Z,97165.22
2022-09-18T19:33:40.825Z,97165.34
2022-09-18T19:36:48.903Z,97172.25
2022-09-18T19:39:50.397Z,97166.75
2022-09-18T19:42:58.818Z,97177.28
2022-09-18T19:46:01.359Z,97172.66
2022-09-18T19:49:03.036Z,97171.81
2022-09-18T19:52:15.208Z,97176.88
2022-09-18T19:55:18.429Z,97179.56
2022-09-18T19:58:20.273Z,97177.72
2022-09-18T20:01:21.779Z,97171.25
2022-09-18T20:04:23.419Z,97176.72
2022-09-18T20:07:25.234Z,97177.88
2022-09-18T20:10:27.281Z,97176.72
2022-09-18T20:13:28.820Z,97182.06
2022-09-18T20:16:30.428Z,97182.78
2022-09-18T20:19:32.281Z,97181.38
2022-09-18T20:22:37.226Z,97185.03
2022-09-18T20:25:38.972Z,97190.78
2022-09-18T20:28:40.497Z,97184.31
2022-09-18T20:31:42.428Z,97188.09
2022-09-18T20:34:47.791Z,97191.47
2022-09-18T20:37:49.474Z,97198.63
2022-09-18T20:41:06.733Z,97186.28
2022-09-18T20:44:09.001Z,97205.66
2022-09-18T20:47:10.436Z,97200.72
2022-09-18T20:50:13.494Z,97205.63
2022-09-18T20:53:14.930Z,97206.59
2022-09-18T20:56:21.493Z,97211.75
2022-09-18T20:59:24.761Z,97202.47
2022-09-18T21:02:26.283Z,97208.97
2022-09-18T21:05:27.745Z,97208.53
2022-09-18T21:08:29.760Z,97193.66
2022-09-18T21:11:34.419Z,97192.22
2022-09-18T21:14:36.813Z,97195.03
2022-09-18T21:17:38.454Z,97198.13
2022-09-18T21:20:40.706Z,97192.69
2022-09-18T21:23:56.165Z,97186.63
2022-09-18T21:26:57.899Z,97189.16
2022-09-18T21:29:59.273Z,97185.81
2022-09-18T21:33:01.739Z,97188.88
2022-09-18T21:36:03.684Z,97186.91
2022-09-18T21:39:09.662Z,97190.06
2022-09-18T21:42:11.337Z,97193.25
2022-09-18T21:45:20.548Z,97198.00
2022-09-18T21:48:23.314Z,97195.72
2022-09-18T21:51:24.698Z,97203.16
2022-09-18T21:54:27.078Z,97212.09
2022-09-18T21:57:28.553Z,97204.13
2022-09-18T22:00:30.035Z,97207.09
2022-09-18T22:03:31.738Z,97219.09
2022-09-18T22:06:35.868Z,97208.53
2022-09-18T22:09:38.104Z,97209.00
2022-09-18T22:12:39.654Z,97206.38
2022-09-18T22:15:41.050Z,97208.06
2022-09-18T22:18:42.433Z,97213.38
2022-09-18T22:21:46.391Z,97213.53
2022-09-18T22:24:47.913Z,97208.31
2022-09-18T22:27:49.356Z,97206.22
2022-09-18T22:30:50.822Z,97199.47
2022-09-18T22:33:57.603Z,97199.75
2022-09-18T22:37:00.051Z,97198.59
2022-09-18T22:40:02.038Z,97204.97
2022-09-18T22:43:03.652Z,97212.56
2022-09-18T22:46:14.023Z,97203.28
2022-09-18T22:49:17.006Z,97219.25
2022-09-18T22:52:18.530Z,97219.97
2022-09-18T22:55:21.611Z,97217.41
2022-09-18T22:58:23.012Z,97226.22
2022-09-18T23:01:28.892Z,97233.28
2022-09-18T23:04:33.394Z,97237.44
2022-09-18T23:07:35.826Z,97237.19
2022-09-18T23:10:37.237Z,97246.41
2022-09-18T23:13:40.405Z,97243.34
2022-09-18T23:16:41.848Z,97260.63
2022-09-18T23:19:43.692Z,97246.22
2022-09-18T23:22:45.129Z,97254.72
2022-09-18T23:25:46.512Z,97269.09
2022-09-18T23:28:47.873Z,97281.88
2022-09-18T23:31:52.723Z,97302.16
2022-09-18T23:34:55.074Z,97310.78
2022-09-18T23:37:56.484Z,97322.75
2022-09-18T23:41:02.138Z,97323.72
2022-09-18T23:44:05.221Z,97337.66
2022-09-18T23:47:06.804Z,97331.94
2022-09-18T23:50:08.442Z,97338.94
2022-09-18T23:53:09.830Z,97340.72
2022-09-18T23:56:13.440Z,97336.59
2022-09-18T23:59:18.650Z,97328.06
